createdAt,value
2022-10-25T00:01:47.268Z,13.61
2022-10-25T00:04:14.336Z,13.48
2022-10-25T00:06:40.970Z,13.89
2022-10-25T00:09:08.050Z,14.19
2022-10-25T00:11:34.942Z,14.46
2022-10-25T00:14:03.007Z,14.24
2022-10-25T00:16:31.314Z,14.11
2022-10-25T00:18:57.751Z,14.08
2022-10-25T00:21:24.391Z,14.14
2022-10-25T00:23:51.457Z,14.13
2022-10-25T00:26:18.237Z,14.11
2022-10-25T00:28:44.683Z,14.19
2022-10-25T00:31:12.472Z,14.26
2022-10-25T00:33:39.419Z,14.18
2022-10-25T00:36:05.895Z,14.24
2022-10-25T00:38:32.389Z,14.27
2022-10-25T00:40:59.144Z,14.16
2022-10-25T00:43:32.870Z,13.87
2022-10-25T00:48:28.046Z,13.74
2022-10-25T00:50:54.725Z,13.40
2022-10-25T00:53:28.049Z,13.40
2022-10-25T00:56:08.351Z,13.34
2022-10-25T00:58:37.377Z,13.67
2022-10-25T01:01:05.976Z,13.73
2022-10-25T01:03:34.295Z,13.65
2022-10-25T01:06:01.899Z,13.71
2022-10-25T01:08:28.440Z,13.88
2022-10-25T01:10:54.845Z,13.90
2022-10-25T01:13:21.339Z,13.99
2022-10-25T01:16:03.159Z,14.09
2022-10-25T01:18:38.805Z,14.25
2022-10-25T01:21:11.309Z,14.28
2022-10-25T01:23:43.791Z,14.27
2022-10-25T01:26:10.193Z,14.38
2022-10-25T01:28:36.591Z,14.43
2022-10-25T01:31:06.113Z,14.35
2022-10-25T01:33:39.537Z,14.10
2022-10-25T01:36:18.326Z,14.21
2022-10-25T01:38:50.553Z,14.22
2022-10-25T01:41:28.092Z,14.16
2022-10-25T01:44:07.759Z,14.33
2022-10-25T01:46:46.414Z,14.42
2022-10-25T01:49:16.457Z,14.45
2022-10-25T01:51:42.981Z,14.44
2022-10-25T01:54:23.094Z,14.38
2022-10-25T01:56:59.084Z,14.39
2022-10-25T01:59:40.101Z,14.19
2022-10-25T02:02:16.340Z,14.03
2022-10-25T02:04:51.651Z,14.11
2022-10-25T02:07:37.134Z,13.95
2022-10-25T02:10:07.331Z,13.87
2022-10-25T02:12:59.829Z,13.79
2022-10-25T02:15:34.902Z,13.78
2022-10-25T02:18:04.506Z,13.80
2022-10-25T02:20:33.597Z,13.67
2022-10-25T02:23:02.463Z,14.00
2022-10-25T02:25:32.300Z,14.16
2022-10-25T02:27:59.822Z,13.90
2022-10-25T02:30:26.914Z,13.75
2022-10-25T02:32:53.336Z,13.78
2022-10-25T02:35:19.934Z,13.80
2022-10-25T02:37:46.568Z,13.67
2022-10-25T02:40:13.474Z,13.76
2022-10-25T02:42:39.984Z,13.74
2022-10-25T02:45:07.090Z,13.79
2022-10-25T02:47:33.517Z,14.02
2022-10-25T02:50:00.122Z,13.87
2022-10-25T02:52:26.675Z,14.42
2022-10-25T02:54:53.111Z,13.95
2022-10-25T02:57:19.515Z,13.84
2022-10-25T02:59:45.969Z,13.80
2022-10-25T03:02:12.487Z,13.90
2022-10-25T03:04:38.908Z,13.87
2022-10-25T03:07:05.346Z,13.86
2022-10-25T03:09:31.750Z,13.90
2022-10-25T03:11:58.292Z,13.68
2022-10-25T03:14:25.472Z,13.58
2022-10-25T03:16:51.920Z,13.46
2022-10-25T03:19:18.361Z,13.58
2022-10-25T03:21:44.841Z,13.54
2022-10-25T03:24:11.257Z,13.38
2022-10-25T03:26:37.739Z,13.40
2022-10-25T03:29:04.227Z,13.54
2022-10-25T03:31:30.623Z,13.41
2022-10-25T03:33:57.041Z,13.40
2022-10-25T03:36:23.492Z,13.50
2022-10-25T03:38:49.895Z,13.40
2022-10-25T03:41:16.328Z,13.42
2022-10-25T03:43:42.741Z,13.91
2022-10-25T03:46:09.176Z,13.81
2022-10-25T03:48:36.330Z,13.60
2022-10-25T03:51:02.816Z,13.51
2022-10-25T03:53:29.302Z,13.46
2022-10-25T03:55:55.757Z,13.40
2022-10-25T03:58:22.201Z,13.46
2022-10-25T04:00:48.723Z,13.33
2022-10-25T04:03:15.348Z,13.45
2022-10-25T04:05:41.783Z,13.74
2022-10-25T04:08:08.226Z,13.87
2022-10-25T04:10:34.681Z,13.72
2022-10-25T04:13:01.208Z,13.67
2022-10-25T04:15:27.694Z,13.80
2022-10-25T04:17:54.774Z,13.62
2022-10-25T04:20:21.277Z,13.41
2022-10-25T04:22:56.884Z,13.24
2022-10-25T04:25:23.950Z,13.29
2022-10-25T04:27:50.517Z,13.59
2022-10-25T04:30:17.198Z,13.64
2022-10-25T04:32:43.779Z,13.65
2022-10-25T04:35:10.769Z,13.72
2022-10-25T04:37:37.209Z,13.75
2022-10-25T04:40:03.873Z,13.67
2022-10-25T04:42:32.683Z,13.57
2022-10-25T04:44:59.069Z,13.69
2022-10-25T04:47:25.493Z,13.48
2022-10-25T04:49:51.922Z,13.35
2022-10-25T04:52:19.221Z,13.34
2022-10-25T04:54:45.625Z,13.27
2022-10-25T04:57:12.017Z,13.25
2022-10-25T04:59:38.641Z,13.28
2022-10-25T05:02:05.549Z,13.42
2022-10-25T05:04:32.024Z,13.59
2022-10-25T05:06:58.420Z,13.57
2022-10-25T05:09:24.857Z,13.78
2022-10-25T05:11:51.268Z,13.54
2022-10-25T05:14:17.713Z,13.77
2022-10-25T05:16:44.133Z,14.44
2022-10-25T05:19:10.561Z,14.25
2022-10-25T05:21:37.038Z,13.78
2022-10-25T05:24:03.608Z,13.61
2022-10-25T05:26:30.921Z,13.63
2022-10-25T05:28:57.515Z,13.63
2022-10-25T05:31:25.215Z,13.69
2022-10-25T05:33:52.738Z,13.75
2022-10-25T05:36:19.559Z,13.54
2022-10-25T05:38:46.334Z,13.46
2022-10-25T05:41:14.001Z,13.44
2022-10-25T05:43:41.151Z,13.54
2022-10-25T05:46:08.752Z,13.49
2022-10-25T05:48:35.941Z,13.56
2022-10-25T05:51:28.638Z,13.49
2022-10-25T05:53:56.730Z,13.45
2022-10-25T05:56:24.403Z,13.55
2022-10-25T05:58:51.289Z,13.52
2022-10-25T06:01:18.765Z,13.35
2022-10-25T06:03:47.911Z,13.10
2022-10-25T06:06:14.901Z,13.37
2022-10-25T06:08:41.534Z,13.53
2022-10-25T06:11:09.238Z,13.51
2022-10-25T06:13:35.823Z,13.64
2022-10-25T06:16:06.417Z,13.55
2022-10-25T06:18:33.570Z,13.69
2022-10-25T06:21:03.880Z,13.58
2022-10-25T06:23:31.569Z,13.68
2022-10-25T06:26:01.983Z,13.67
2022-10-25T06:28:29.099Z,13.65
2022-10-25T06:31:00.358Z,13.62
2022-10-25T06:33:28.066Z,13.73
2022-10-25T06:35:55.686Z,13.82
2022-10-25T06:38:22.197Z,13.54
2022-10-25T06:40:48.606Z,13.50
2022-10-25T06:43:15.046Z,13.64
2022-10-25T06:45:41.815Z,13.79
2022-10-25T06:48:08.250Z,13.82
2022-10-25T06:50:34.907Z,13.75
2022-10-25T06:53:01.334Z,13.84
2022-10-25T06:55:27.772Z,14.12
2022-10-25T06:57:56.916Z,14.18
2022-10-25T07:00:23.462Z,14.21
2022-10-25T07:02:59.678Z,14.42
2022-10-25T07:05:26.861Z,14.35
2022-10-25T07:07:53.851Z,14.42
2022-10-25T07:10:20.263Z,14.29
2022-10-25T07:12:46.668Z,14.61
2022-10-25T07:15:13.231Z,14.84
2022-10-25T07:17:39.728Z,15.25
2022-10-25T07:20:06.525Z,15.86
2022-10-25T07:22:33.134Z,15.86
2022-10-25T07:24:59.719Z,15.47
2022-10-25T07:27:26.157Z,15.47
2022-10-25T07:29:52.598Z,15.49
2022-10-25T07:32:19.041Z,15.63
2022-10-25T07:34:45.455Z,15.87
2022-10-25T07:37:11.911Z,16.01
2022-10-25T07:39:38.339Z,16.33
2022-10-25T07:42:04.866Z,16.79
2022-10-25T07:44:31.291Z,16.77
2022-10-25T07:46:57.713Z,16.41
2022-10-25T07:49:24.178Z,16.15
2022-10-25T07:51:50.627Z,16.09
2022-10-25T07:54:17.065Z,16.47
2022-10-25T07:56:43.534Z,16.86
2022-10-25T07:59:10.045Z,17.13
2022-10-25T08:01:36.849Z,16.74
2022-10-25T08:04:03.567Z,16.81
2022-10-25T08:06:30.001Z,16.63
2022-10-25T08:08:56.408Z,16.61
2022-10-25T08:11:22.847Z,16.57
2022-10-25T08:13:50.291Z,16.69
2022-10-25T08:16:16.797Z,16.86
2022-10-25T08:18:44.083Z,16.68
2022-10-25T08:21:10.551Z,16.84
2022-10-25T08:23:37.035Z,16.90
2022-10-25T08:26:03.550Z,16.79
2022-10-25T08:28:33.130Z,16.54
2022-10-25T08:31:01.148Z,16.51
2022-10-25T08:33:28.469Z,16.47
2022-10-25T08:35:54.873Z,16.56
2022-10-25T08:38:21.344Z,17.08
2022-10-25T08:40:57.024Z,17.49
2022-10-25T08:43:23.481Z,17.59
2022-10-25T08:45:52.967Z,17.89
2022-10-25T08:48:22.370Z,18.04
2022-10-25T08:50:52.287Z,17.98
2022-10-25T08:53:22.292Z,18.97
2022-10-25T08:56:05.064Z,19.50
2022-10-25T08:58:37.344Z,20.08
2022-10-25T09:01:06.473Z,20.52
2022-10-25T09:03:33.231Z,20.46
2022-10-25T09:06:18.941Z,20.14
2022-10-25T09:09:23.024Z,19.37
2022-10-25T09:12:08.258Z,20.49
2022-10-25T09:14:50.735Z,20.60
2022-10-25T09:17:21.342Z,20.70
2022-10-25T09:19:56.975Z,21.07
2022-10-25T09:22:28.366Z,20.98
2022-10-25T09:24:59.836Z,21.51
2022-10-25T09:27:36.441Z,21.55
2022-10-25T09:30:07.435Z,22.15
2022-10-25T09:32:43.460Z,22.43
2022-10-25T09:35:39.178Z,22.78
2022-10-25T09:38:10.558Z,22.24
2022-10-25T09:40:47.591Z,22.26
2022-10-25T09:43:17.747Z,22.04
2022-10-25T09:45:46.809Z,22.52
2022-10-25T09:48:17.094Z,22.30
2022-10-25T09:50:53.555Z,22.74
2022-10-25T09:53:23.103Z,23.19
2022-10-25T09:55:50.564Z,23.08
2022-10-25T09:58:19.394Z,22.94
2022-10-25T10:00:45.949Z,22.16
2022-10-25T10:03:13.101Z,22.74
2022-10-25T10:05:42.051Z,21.56
2022-10-25T10:08:08.903Z,22.58
2022-10-25T10:10:35.650Z,22.69
2022-10-25T10:13:17.326Z,22.67
2022-10-25T10:15:49.640Z,22.73
2022-10-25T10:18:23.758Z,22.80
2022-10-25T10:21:04.780Z,22.31
2022-10-25T10:23:37.389Z,22.26
2022-10-25T10:26:12.023Z,22.20
2022-10-25T10:28:44.065Z,22.87
2022-10-25T10:31:10.535Z,22.31
2022-10-25T10:33:38.430Z,22.22
2022-10-25T10:36:21.607Z,22.47
2022-10-25T10:38:48.347Z,22.79
2022-10-25T10:41:20.717Z,22.90
2022-10-25T10:43:47.158Z,22.60
2022-10-25T10:46:15.267Z,23.16
2022-10-25T10:48:43.519Z,23.00
2022-10-25T10:51:39.064Z,23.51
2022-10-25T10:54:22.018Z,22.69
2022-10-25T10:56:59.577Z,22.76
2022-10-25T10:59:29.026Z,23.90
2022-10-25T11:01:56.616Z,23.88
2022-10-25T11:04:26.091Z,23.80
2022-10-25T11:06:52.742Z,24.22
2022-10-25T11:09:24.350Z,24.23
2022-10-25T11:12:09.543Z,24.15
2022-10-25T11:14:36.084Z,24.83
2022-10-25T11:17:22.809Z,24.17
2022-10-25T11:19:52.325Z,25.11
2022-10-25T11:22:18.746Z,24.82
2022-10-25T11:24:54.946Z,24.08
2022-10-25T11:27:39.567Z,24.61
2022-10-25T11:30:22.734Z,24.31
2022-10-25T11:33:05.176Z,24.50
2022-10-25T11:35:45.287Z,24.29
2022-10-25T11:38:21.418Z,24.35
2022-10-25T11:41:04.654Z,24.47
2022-10-25T11:43:43.113Z,24.76
2022-10-25T11:46:31.483Z,25.19
2022-10-25T11:49:13.178Z,24.50
2022-10-25T11:51:58.506Z,23.79
2022-10-25T11:54:44.926Z,24.02
2022-10-25T11:57:14.097Z,24.45
2022-10-25T11:59:58.863Z,24.17
2022-10-25T12:02:28.355Z,24.65
2022-10-25T12:04:57.927Z,24.35
2022-10-25T12:07:24.602Z,24.63
2022-10-25T12:09:51.048Z,22.94
2022-10-25T12:12:18.901Z,22.88
2022-10-25T12:14:48.567Z,23.71
2022-10-25T12:17:18.026Z,23.24
2022-10-25T12:19:46.055Z,24.01
2022-10-25T12:22:18.561Z,24.67
2022-10-25T12:24:47.878Z,23.58
2022-10-25T12:27:16.289Z,23.37
2022-10-25T12:29:46.298Z,23.79
2022-10-25T12:32:15.931Z,24.39
2022-10-25T12:34:50.882Z,24.22
2022-10-25T12:37:26.331Z,23.86
2022-10-25T12:39:52.929Z,24.85
2022-10-25T12:42:25.013Z,25.29
2022-10-25T12:44:58.486Z,25.26
2022-10-25T12:47:43.738Z,25.00
2022-10-25T12:50:10.211Z,25.83
2022-10-25T12:52:38.536Z,25.54
2022-10-25T12:55:21.584Z,25.62
2022-10-25T12:57:57.026Z,25.34
2022-10-25T13:00:24.081Z,25.92
2022-10-25T13:02:59.418Z,25.83
2022-10-25T13:05:25.837Z,25.25
2022-10-25T13:07:54.838Z,25.22
2022-10-25T13:10:22.441Z,24.42
2022-10-25T13:13:21.595Z,25.43
2022-10-25T13:15:50.225Z,25.47
2022-10-25T13:18:28.964Z,25.69
2022-10-25T13:20:55.509Z,25.46
2022-10-25T13:23:40.914Z,25.51
2022-10-25T13:26:08.434Z,24.95
2022-10-25T13:28:44.525Z,24.94
2022-10-25T13:31:28.933Z,25.27
2022-10-25T13:34:13.809Z,25.45
2022-10-25T13:36:46.015Z,25.08
2022-10-25T13:39:15.620Z,25.49
2022-10-25T13:41:44.518Z,24.01
2022-10-25T13:44:19.526Z,24.56
2022-10-25T13:46:46.422Z,24.49
2022-10-25T13:49:30.372Z,24.91
2022-10-25T13:51:58.111Z,24.58
2022-10-25T13:54:24.615Z,24.32
2022-10-25T13:56:53.066Z,24.14
2022-10-25T13:59:36.505Z,24.10
2022-10-25T14:02:17.341Z,24.07
2022-10-25T14:04:43.966Z,24.05
2022-10-25T14:07:29.298Z,24.55
2022-10-25T14:09:55.878Z,24.32
2022-10-25T14:12:22.930Z,23.91
2022-10-25T14:14:55.315Z,24.00
2022-10-25T14:17:30.917Z,23.99
2022-10-25T14:19:58.845Z,23.98
2022-10-25T14:22:32.700Z,23.87
2022-10-25T14:25:02.211Z,23.97
2022-10-25T14:27:36.312Z,23.59
2022-10-25T14:30:22.359Z,23.57
2022-10-25T14:32:54.187Z,23.70
2022-10-25T14:35:20.959Z,23.33
2022-10-25T14:37:47.527Z,23.58
2022-10-25T14:40:18.243Z,23.42
2022-10-25T14:42:44.860Z,22.92
2022-10-25T14:45:26.869Z,22.43
2022-10-25T14:47:53.371Z,23.04
2022-10-25T14:50:25.821Z,22.75
2022-10-25T14:52:52.469Z,22.07
2022-10-25T14:55:27.326Z,22.03
2022-10-25T14:57:54.075Z,22.20
2022-10-25T15:00:22.590Z,21.40
2022-10-25T15:02:53.232Z,21.43
2022-10-25T15:05:21.129Z,20.55
2022-10-25T15:07:49.097Z,20.26
2022-10-25T15:10:36.228Z,20.73
2022-10-25T15:13:04.554Z,19.73
2022-10-25T15:15:40.492Z,19.34
2022-10-25T15:18:19.826Z,19.45
2022-10-25T15:20:48.940Z,18.75
2022-10-25T15:23:16.991Z,18.98
2022-10-25T15:25:43.423Z,18.86
2022-10-25T15:28:14.282Z,18.79
2022-10-25T15:30:57.499Z,18.41
2022-10-25T15:33:28.294Z,18.01
2022-10-25T15:36:04.676Z,18.08
2022-10-25T15:38:54.412Z,18.11
2022-10-25T15:41:19.846Z,17.55
2022-10-25T15:43:46.251Z,17.66
2022-10-25T15:46:23.132Z,17.68
2022-10-25T15:48:49.645Z,17.57
2022-10-25T15:51:16.214Z,17.60
2022-10-25T15:53:42.687Z,17.71
2022-10-25T15:56:12.006Z,17.61
2022-10-25T15:58:38.430Z,17.57
2022-10-25T16:01:05.078Z,17.27
2022-10-25T16:03:31.632Z,17.15
2022-10-25T16:05:58.129Z,17.04
2022-10-25T16:08:24.778Z,16.93
2022-10-25T16:10:51.881Z,16.98
2022-10-25T16:13:25.696Z,17.03
2022-10-25T16:15:52.180Z,16.97
2022-10-25T16:18:18.715Z,16.81
2022-10-25T16:20:45.245Z,16.73
2022-10-25T16:23:11.668Z,16.60
2022-10-25T16:25:38.114Z,16.50
2022-10-25T16:28:04.565Z,16.50
2022-10-25T16:30:33.796Z,16.29
2022-10-25T16:33:00.214Z,16.23
2022-10-25T16:35:26.631Z,16.11
2022-10-25T16:37:53.704Z,16.04
2022-10-25T16:40:21.048Z,15.94
2022-10-25T16:42:48.218Z,15.95
2022-10-25T16:45:14.770Z,15.81
2022-10-25T16:47:41.491Z,15.94
2022-10-25T16:50:08.277Z,15.62
2022-10-25T16:52:34.720Z,15.57
2022-10-25T16:55:01.240Z,15.52
2022-10-25T16:57:27.662Z,15.37
2022-10-25T16:59:54.290Z,15.45
2022-10-25T17:02:22.033Z,15.31
2022-10-25T17:04:48.680Z,15.21
2022-10-25T17:07:15.488Z,15.26
2022-10-25T17:09:42.190Z,15.24
2022-10-25T17:12:09.405Z,15.16
2022-10-25T17:14:36.321Z,15.16
2022-10-25T17:17:03.414Z,15.12
2022-10-25T17:19:29.927Z,15.06
2022-10-25T17:21:56.584Z,14.77
2022-10-25T17:24:23.382Z,14.69
2022-10-25T17:26:49.980Z,14.80
2022-10-25T17:29:17.149Z,14.60
2022-10-25T17:31:44.154Z,14.68
2022-10-25T17:34:10.933Z,14.75
2022-10-25T17:36:38.186Z,14.63
2022-10-25T17:39:06.373Z,14.63
2022-10-25T17:41:32.855Z,14.66
2022-10-25T17:43:59.286Z,14.56
2022-10-25T17:46:27.602Z,14.48
2022-10-25T17:48:55.482Z,14.44
2022-10-25T17:51:23.336Z,14.41
2022-10-25T17:53:54.237Z,14.32
2022-10-25T17:56:21.865Z,14.32
2022-10-25T17:58:49.011Z,14.01
2022-10-25T18:01:17.419Z,13.99
2022-10-25T18:03:44.310Z,14.04
2022-10-25T18:06:12.873Z,13.94
2022-10-25T18:08:39.711Z,13.83
2022-10-25T18:11:09.790Z,13.87
2022-10-25T18:13:37.654Z,13.87
2022-10-25T18:18:36.338Z,13.80
2022-10-25T18:21:03.701Z,13.79
2022-10-25T18:23:30.121Z,13.79
2022-10-25T18:28:22.945Z,13.72
2022-10-25T18:30:49.398Z,13.66
2022-10-25T18:33:15.969Z,13.71
2022-10-25T18:35:42.424Z,13.71
2022-10-25T18:38:08.852Z,13.71
2022-10-25T18:40:35.901Z,13.69
2022-10-25T18:43:02.531Z,13.52
2022-10-25T18:45:28.991Z,13.53
2022-10-25T18:47:55.750Z,13.40
2022-10-25T18:50:22.815Z,13.48
2022-10-25T18:52:49.237Z,13.39
2022-10-25T18:55:15.748Z,13.30
2022-10-25T18:57:42.162Z,13.34
2022-10-25T19:00:09.054Z,13.32
2022-10-25T19:02:37.779Z,13.19
2022-10-25T19:05:04.748Z,13.12
2022-10-25T19:07:31.244Z,13.15
2022-10-25T19:09:57.664Z,13.18
2022-10-25T19:12:24.085Z,13.08
2022-10-25T19:14:50.483Z,13.10
2022-10-25T19:17:16.914Z,13.00
2022-10-25T19:19:43.365Z,12.93
2022-10-25T19:22:09.790Z,12.87
2022-10-25T19:24:38.218Z,12.83
2022-10-25T19:27:04.669Z,12.64
2022-10-25T19:29:31.108Z,12.55
2022-10-25T19:31:57.929Z,12.48
2022-10-25T19:34:24.337Z,12.68
2022-10-25T19:36:51.952Z,12.61
2022-10-25T19:39:18.441Z,12.72
2022-10-25T19:41:44.859Z,12.61
2022-10-25T19:44:11.330Z,12.55
2022-10-25T19:46:37.761Z,12.50
2022-10-25T19:49:05.763Z,12.44
2022-10-25T19:51:32.725Z,12.46
2022-10-25T19:53:59.190Z,12.48
2022-10-25T19:56:25.605Z,12.45
2022-10-25T19:58:52.095Z,12.40
2022-10-25T20:01:19.823Z,12.37
2022-10-25T20:03:48.537Z,12.28
2022-10-25T20:06:18.737Z,12.20
2022-10-25T20:08:48.574Z,12.25
2022-10-25T20:11:16.392Z,11.97
2022-10-25T20:13:42.869Z,11.87
2022-10-25T20:16:09.734Z,11.93
2022-10-25T20:18:37.346Z,12.15
2022-10-25T20:21:07.305Z,12.14
2022-10-25T20:23:34.263Z,12.14
2022-10-25T20:26:09.486Z,12.01
2022-10-25T20:28:35.923Z,12.07
2022-10-25T20:31:03.309Z,12.12
2022-10-25T20:33:29.949Z,12.25
2022-10-25T20:36:00.467Z,12.11
2022-10-25T20:38:27.058Z,12.10
2022-10-25T20:40:53.498Z,12.00
2022-10-25T20:43:20.101Z,11.96
2022-10-25T20:45:48.133Z,12.17
2022-10-25T20:48:17.298Z,12.23
2022-10-25T20:50:49.438Z,12.13
2022-10-25T20:53:16.577Z,12.18
2022-10-25T20:55:44.746Z,12.06
2022-10-25T20:58:11.206Z,11.82
2022-10-25T21:00:37.739Z,11.78
2022-10-25T21:03:04.147Z,11.94
2022-10-25T21:05:30.612Z,11.85
2022-10-25T21:07:57.059Z,11.77
2022-10-25T21:10:23.550Z,11.77
2022-10-25T21:12:49.980Z,11.92
2022-10-25T21:15:16.440Z,11.66
2022-10-25T21:17:48.112Z,11.48
2022-10-25T21:20:14.720Z,11.63
2022-10-25T21:22:42.467Z,11.55
2022-10-25T21:25:09.312Z,11.41
2022-10-25T21:27:35.730Z,11.45
2022-10-25T21:30:02.169Z,11.61
2022-10-25T21:32:29.288Z,11.37
2022-10-25T21:34:55.812Z,11.47
2022-10-25T21:37:22.277Z,11.42
2022-10-25T21:39:48.685Z,11.30
2022-10-25T21:42:15.173Z,11.31
2022-10-25T21:44:41.600Z,11.39
2022-10-25T21:47:08.035Z,11.31
2022-10-25T21:49:34.564Z,11.32
2022-10-25T21:52:01.049Z,11.32
2022-10-25T21:54:28.107Z,11.22
2022-10-25T21:56:54.933Z,11.31
2022-10-25T21:59:22.057Z,11.24
2022-10-25T22:01:48.901Z,11.13
2022-10-25T22:04:16.049Z,11.09
2022-10-25T22:06:42.482Z,11.08
2022-10-25T22:09:08.952Z,11.00
2022-10-25T22:11:37.070Z,10.93
2022-10-25T22:14:04.962Z,10.98
2022-10-25T22:16:31.923Z,10.98
2022-10-25T22:19:05.640Z,11.06
2022-10-25T22:21:33.657Z,11.02
2022-10-25T22:24:00.160Z,10.91
2022-10-25T22:26:26.789Z,10.97
2022-10-25T22:28:54.200Z,11.05
2022-10-25T22:31:22.876Z,11.14
2022-10-25T22:33:57.203Z,10.97
2022-10-25T22:36:24.832Z,10.89
2022-10-25T22:38:51.308Z,10.85
2022-10-25T22:41:18.851Z,10.84
2022-10-25T22:43:45.969Z,10.85
2022-10-25T22:46:14.094Z,10.85
2022-10-25T22:48:41.616Z,10.67
2022-10-25T22:51:08.848Z,10.76
2022-10-25T22:53:35.984Z,10.71
2022-10-25T22:56:04.170Z,10.62
2022-10-25T22:58:34.737Z,10.67
2022-10-25T23:01:05.694Z,10.78
2022-10-25T23:03:33.460Z,10.64
2022-10-25T23:06:00.673Z,10.58
2022-10-25T23:08:27.764Z,10.62
2022-10-25T23:11:01.817Z,10.41
2022-10-25T23:13:31.737Z,10.60
2022-10-25T23:15:58.298Z,10.59
2022-10-25T23:18:25.054Z,10.53
2022-10-25T23:20:52.301Z,10.45
2022-10-25T23:23:19.110Z,10.38
2022-10-25T23:25:45.814Z,10.40
2022-10-25T23:28:12.634Z,10.44
2022-10-25T23:30:39.711Z,10.57
2022-10-25T23:33:06.558Z,10.43
2022-10-25T23:35:33.823Z,10.36
2022-10-25T23:38:00.854Z,10.58
2022-10-25T23:40:28.331Z,10.58
2022-10-25T23:42:54.893Z,10.35
2022-10-25T23:45:21.301Z,10.12
2022-10-25T23:47:48.128Z,10.18
2022-10-25T23:50:15.122Z,10.08
2022-10-25T23:52:41.524Z,10.18
2022-10-25T23:55:07.981Z,10.25
2022-10-25T23:57:34.386Z,10.26
